Flugplatz Dachau-Gröbenried

Für EDMD sind keine METAR/TAF Berichte vorhanden.
Es werden die Flugwettermeldungen vom Flugplatz Oberpfaffenhofen in 19 km Entfernung angezeigt.

Bericht für EDMO

vom 25.05. um 00:20 UTC

Wind 5 kt aus 230°

Sichtweite 10 km oder mehr

aufgebrochene Bewölkung in 6000 ft

bedeckt in 7800 ft

Temperatur 11.0°C

Taupunkt 6.0°C

Luftfeuchtigkeit 71%

Luftdruck 1031 hPa

EDMO 250020Z AUTO 23005KT 9999 // BKN060/// OVC078/// 11/06 Q1031
Keine Prognose (TAF) verfügbar.
Impressum